sensor_id;sensor_type;location;lat;lon;timestamp;pressure;altitude;pressure_sealevel;temperature;humidity
19590;BME280;12231;42.782;23.388;2023-01-28T00:00:28;95000.50;;;1.67;100.00
19590;BME280;12231;42.782;23.388;2023-01-28T00:02:53;94990.47;;;1.64;100.00
19590;BME280;12231;42.782;23.388;2023-01-28T00:05:19;94995.69;;;1.59;100.00
19590;BME280;12231;42.782;23.388;2023-01-28T00:07:44;95002.75;;;1.51;100.00
19590;BME280;12231;42.782;23.388;2023-01-28T00:10:12;94998.38;;;1.55;100.00
19590;BME280;12231;42.782;23.388;2023-01-28T00:12:39;94999.28;;;1.54;100.00
19590;BME280;12231;42.782;23.388;2023-01-28T00:15:05;94997.63;;;1.53;100.00
19590;BME280;12231;42.782;23.388;2023-01-28T00:17:30;94999.00;;;1.61;100.00
19590;BME280;12231;42.782;23.388;2023-01-28T00:19:56;95011.03;;;1.56;100.00
19590;BME280;12231;42.782;23.388;2023-01-28T00:22:21;95009.38;;;1.55;100.00
19590;BME280;12231;42.782;23.388;2023-01-28T00:24:47;95010.63;;;1.43;100.00
19590;BME280;12231;42.782;23.388;2023-01-28T00:27:12;95018.56;;;1.34;100.00
19590;BME280;12231;42.782;23.388;2023-01-28T00:29:38;95018.97;;;1.47;100.00
19590;BME280;12231;42.782;23.388;2023-01-28T00:32:04;95022.06;;;1.55;100.00
19590;BME280;12231;42.782;23.388;2023-01-28T00:34:29;95023.75;;;1.56;100.00
19590;BME280;12231;42.782;23.388;2023-01-28T00:36:54;95022.41;;;1.46;100.00
19590;BME280;12231;42.782;23.388;2023-01-28T00:39:24;95023.41;;;1.40;100.00
19590;BME280;12231;42.782;23.388;2023-01-28T00:41:50;95020.81;;;1.42;100.00
19590;BME280;12231;42.782;23.388;2023-01-28T00:44:15;95026.28;;;1.56;100.00
19590;BME280;12231;42.782;23.388;2023-01-28T00:46:41;95023.34;;;1.67;100.00
19590;BME280;12231;42.782;23.388;2023-01-28T00:49:06;95024.69;;;1.77;100.00
19590;BME280;12231;42.782;23.388;2023-01-28T00:51:32;95027.28;;;1.75;100.00
19590;BME280;12231;42.782;23.388;2023-01-28T00:53:58;95034.06;;;1.75;100.00
19590;BME280;12231;42.782;23.388;2023-01-28T00:56:23;95027.03;;;1.58;100.00
19590;BME280;12231;42.782;23.388;2023-01-28T00:58:49;95037.56;;;1.72;100.00
19590;BME280;12231;42.782;23.388;2023-01-28T01:01:17;95039.53;;;1.39;100.00
19590;BME280;12231;42.782;23.388;2023-01-28T01:03:43;95033.16;;;1.53;100.00
19590;BME280;12231;42.782;23.388;2023-01-28T01:06:10;95033.50;;;1.67;100.00
19590;BME280;12231;42.782;23.388;2023-01-28T01:08:36;95036.00;;;1.68;100.00
19590;BME280;12231;42.782;23.388;2023-01-28T01:11:05;95035.53;;;1.57;100.00
19590;BME280;12231;42.782;23.388;2023-01-28T01:13:32;95041.91;;;1.69;100.00
19590;BME280;12231;42.782;23.388;2023-01-28T01:16:11;95033.41;;;1.70;100.00
19590;BME280;12231;42.782;23.388;2023-01-28T01:18:37;95036.63;;;1.75;100.00
19590;BME280;12231;42.782;23.388;2023-01-28T01:21:12;95046.03;;;1.71;100.00
19590;BME280;12231;42.782;23.388;2023-01-28T01:23:38;95037.44;;;1.75;100.00
19590;BME280;12231;42.782;23.388;2023-01-28T01:26:04;95042.88;;;1.65;100.00
19590;BME280;12231;42.782;23.388;2023-01-28T01:28:29;95040.22;;;1.69;100.00
19590;BME280;12231;42.782;23.388;2023-01-28T01:31:07;95043.03;;;1.85;100.00
19590;BME280;12231;42.782;23.388;2023-01-28T01:33:33;95051.13;;;1.71;100.00
19590;BME280;12231;42.782;23.388;2023-01-28T01:35:59;95046.72;;;1.76;100.00
19590;BME280;12231;42.782;23.388;2023-01-28T01:38:25;95052.47;;;1.81;100.00
19590;BME280;12231;42.782;23.388;2023-01-28T01:40:51;95047.09;;;1.66;100.00
19590;BME280;12231;42.782;23.388;2023-01-28T01:43:18;95058.28;;;1.85;100.00
19590;BME280;12231;42.782;23.388;2023-01-28T01:45:47;95053.66;;;1.71;100.00
19590;BME280;12231;42.782;23.388;2023-01-28T01:48:31;95049.81;;;1.60;100.00
19590;BME280;12231;42.782;23.388;2023-01-28T01:51:05;95052.91;;;1.69;100.00
19590;BME280;12231;42.782;23.388;2023-01-28T01:53:39;95050.16;;;1.75;100.00
19590;BME280;12231;42.782;23.388;2023-01-28T01:56:09;95051.78;;;1.76;100.00
19590;BME280;12231;42.782;23.388;2023-01-28T01:58:38;95051.84;;;1.75;100.00
19590;BME280;12231;42.782;23.388;2023-01-28T02:01:06;95055.63;;;1.38;100.00
19590;BME280;12231;42.782;23.388;2023-01-28T02:03:42;95057.44;;;1.60;100.00
19590;BME280;12231;42.782;23.388;2023-01-28T02:06:13;95057.44;;;1.60;100.00
19590;BME280;12231;42.782;23.388;2023-01-28T02:08:38;95058.75;;;1.71;100.00
19590;BME280;12231;42.782;23.388;2023-01-28T02:11:05;95061.16;;;1.74;100.00
19590;BME280;12231;42.782;23.388;2023-01-28T02:13:38;95065.94;;;1.83;100.00
19590;BME280;12231;42.782;23.388;2023-01-28T02:16:06;95070.13;;;1.84;100.00
19590;BME280;12231;42.782;23.388;2023-01-28T02:18:32;95069.31;;;1.84;100.00
19590;BME280;12231;42.782;23.388;2023-01-28T02:24:15;95070.59;;;1.95;100.00
19590;BME280;12231;42.782;23.388;2023-01-28T02:29:51;95066.03;;;2.05;100.00
19590;BME280;12231;42.782;23.388;2023-01-28T02:38:07;95073.06;;;1.74;100.00
19590;BME280;12231;42.782;23.388;2023-01-28T02:40:36;95065.28;;;1.78;100.00
19590;BME280;12231;42.782;23.388;2023-01-28T02:43:37;95066.84;;;1.58;100.00
19590;BME280;12231;42.782;23.388;2023-01-28T02:49:03;95067.72;;;1.81;100.00
19590;BME280;12231;42.782;23.388;2023-01-28T02:54:45;95073.31;;;1.66;100.00
19590;BME280;12231;42.782;23.388;2023-01-28T02:57:40;95071.66;;;1.65;100.00
19590;BME280;12231;42.782;23.388;2023-01-28T03:00:12;95069.50;;;1.78;100.00
19590;BME280;12231;42.782;23.388;2023-01-28T03:05:15;95065.75;;;1.65;100.00
19590;BME280;12231;42.782;23.388;2023-01-28T03:07:45;95076.47;;;1.73;100.00
19590;BME280;12231;42.782;23.388;2023-01-28T03:10:13;95065.28;;;1.78;100.00
19590;BME280;12231;42.782;23.388;2023-01-28T03:12:42;95070.41;;;1.77;100.00
19590;BME280;12231;42.782;23.388;2023-01-28T03:15:37;95062.16;;;1.70;100.00
19590;BME280;12231;42.782;23.388;2023-01-28T03:18:27;95069.72;;;1.47;100.00
19590;BME280;12231;42.782;23.388;2023-01-28T03:21:19;95077.63;;;1.64;100.00
19590;BME280;12231;42.782;23.388;2023-01-28T03:24:09;95077.13;;;1.78;100.00
19590;BME280;12231;42.782;23.388;2023-01-28T03:27:01;95076.66;;;1.42;100.00
19590;BME280;12231;42.782;23.388;2023-01-28T03:29:47;95079.78;;;1.50;100.00
19590;BME280;12231;42.782;23.388;2023-01-28T03:32:33;95083.41;;;1.43;100.00
19590;BME280;12231;42.782;23.388;2023-01-28T03:35:21;95085.59;;;1.54;100.00
19590;BME280;12231;42.782;23.388;2023-01-28T03:38:08;95077.25;;;1.50;100.00
19590;BME280;12231;42.782;23.388;2023-01-28T03:40:56;95086.13;;;1.37;100.00
19590;BME280;12231;42.782;23.388;2023-01-28T03:43:23;95080.91;;;1.41;100.00
19590;BME280;12231;42.782;23.388;2023-01-28T03:45:48;95082.06;;;1.33;100.00
19590;BME280;12231;42.782;23.388;2023-01-28T03:48:22;95083.09;;;1.52;100.00
19590;BME280;12231;42.782;23.388;2023-01-28T03:50:48;95086.31;;;1.57;100.00
19590;BME280;12231;42.782;23.388;2023-01-28T03:53:15;95094.44;;;1.42;100.00
19590;BME280;12231;42.782;23.388;2023-01-28T03:55:41;95093.09;;;1.57;100.00
19590;BME280;12231;42.782;23.388;2023-01-28T03:58:07;95088.66;;;1.63;100.00
19590;BME280;12231;42.782;23.388;2023-01-28T04:00:33;95091.41;;;1.57;100.00
19590;BME280;12231;42.782;23.388;2023-01-28T04:03:04;95087.63;;;1.93;100.00
19590;BME280;12231;42.782;23.388;2023-01-28T04:05:45;95101.44;;;1.85;100.00
19590;BME280;12231;42.782;23.388;2023-01-28T04:08:11;95105.84;;;1.80;100.00
19590;BME280;12231;42.782;23.388;2023-01-28T04:10:38;95101.19;;;1.68;100.00
19590;BME280;12231;42.782;23.388;2023-01-28T04:13:04;95106.97;;;1.47;100.00
19590;BME280;12231;42.782;23.388;2023-01-28T04:15:29;95110.72;;;1.61;100.00
19590;BME280;12231;42.782;23.388;2023-01-28T04:17:55;95108.78;;;1.68;100.00
19590;BME280;12231;42.782;23.388;2023-01-28T04:20:20;95113.94;;;1.66;100.00
19590;BME280;12231;42.782;23.388;2023-01-28T04:22:45;95109.44;;;1.50;100.00
19590;BME280;12231;42.782;23.388;2023-01-28T04:25:11;95104.25;;;1.53;100.00
19590;BME280;12231;42.782;23.388;2023-01-28T04:27:36;95107.09;;;1.68;100.00
19590;BME280;12231;42.782;23.388;2023-01-28T04:30:02;95119.00;;;1.66;100.00
19590;BME280;12231;42.782;23.388;2023-01-28T04:32:28;95122.44;;;1.65;100.00
19590;BME280;12231;42.782;23.388;2023-01-28T04:34:53;95117.19;;;1.45;100.00
19590;BME280;12231;42.782;23.388;2023-01-28T04:37:18;95124.16;;;1.38;100.00
19590;BME280;12231;42.782;23.388;2023-01-28T04:39:44;95131.66;;;1.43;100.00
19590;BME280;12231;42.782;23.388;2023-01-28T04:42:09;95129.47;;;1.57;100.00
19590;BME280;12231;42.782;23.388;2023-01-28T04:44:34;95130.19;;;1.36;100.00
19590;BME280;12231;42.782;23.388;2023-01-28T04:47:00;95131.09;;;1.33;100.00
19590;BME280;12231;42.782;23.388;2023-01-28T04:49:25;95126.66;;;1.40;100.00
19590;BME280;12231;42.782;23.388;2023-01-28T04:51:51;95142.28;;;1.28;100.00
19590;BME280;12231;42.782;23.388;2023-01-28T04:54:16;95138.59;;;1.10;100.00
19590;BME280;12231;42.782;23.388;2023-01-28T04:56:41;95143.69;;;1.10;100.00
19590;BME280;12231;42.782;23.388;2023-01-28T04:59:07;95145.13;;;1.17;100.00
19590;BME280;12231;42.782;23.388;2023-01-28T05:01:32;95138.88;;;1.01;100.00
19590;BME280;12231;42.782;23.388;2023-01-28T05:03:58;95146.94;;;1.14;100.00
19590;BME280;12231;42.782;23.388;2023-01-28T05:06:29;95141.56;;;0.97;100.00
19590;BME280;12231;42.782;23.388;2023-01-28T05:08:55;95147.63;;;1.19;100.00
19590;BME280;12231;42.782;23.388;2023-01-28T05:11:20;95143.09;;;1.02;100.00
19590;BME280;12231;42.782;23.388;2023-01-28T05:13:46;95148.75;;;1.10;100.00
19590;BME280;12231;42.782;23.388;2023-01-28T05:16:11;95149.25;;;0.94;100.00
19590;BME280;12231;42.782;23.388;2023-01-28T05:18:37;95145.75;;;0.98;100.00
19590;BME280;12231;42.782;23.388;2023-01-28T05:21:02;95156.41;;;1.09;100.00
19590;BME280;12231;42.782;23.388;2023-01-28T05:23:28;95155.13;;;0.96;100.00
19590;BME280;12231;42.782;23.388;2023-01-28T05:25:53;95161.91;;;0.95;100.00
19590;BME280;12231;42.782;23.388;2023-01-28T05:28:19;95161.56;;;1.06;100.00
19590;BME280;12231;42.782;23.388;2023-01-28T05:30:44;95165.06;;;1.02;100.00
19590;BME280;12231;42.782;23.388;2023-01-28T05:33:09;95168.31;;;1.07;100.00
19590;BME280;12231;42.782;23.388;2023-01-28T05:35:35;95159.22;;;1.00;100.00
19590;BME280;12231;42.782;23.388;2023-01-28T05:38:01;95171.69;;;1.06;100.00
19590;BME280;12231;42.782;23.388;2023-01-28T05:40:27;95175.38;;;0.97;100.00
19590;BME280;12231;42.782;23.388;2023-01-28T05:42:52;95180.50;;;0.96;100.00
19590;BME280;12231;42.782;23.388;2023-01-28T05:45:17;95179.25;;;1.09;100.00
19590;BME280;12231;42.782;23.388;2023-01-28T05:47:43;95189.41;;;1.07;100.00
19590;BME280;12231;42.782;23.388;2023-01-28T05:50:09;95185.47;;;0.99;100.00
19590;BME280;12231;42.782;23.388;2023-01-28T05:52:36;95181.16;;;1.01;100.00
19590;BME280;12231;42.782;23.388;2023-01-28T05:55:02;95190.09;;;0.85;100.00
19590;BME280;12231;42.782;23.388;2023-01-28T05:57:28;95195.31;;;0.80;100.00
19590;BME280;12231;42.782;23.388;2023-01-28T05:59:53;95189.25;;;0.86;100.00
19590;BME280;12231;42.782;23.388;2023-01-28T06:02:19;95188.75;;;0.73;100.00
19590;BME280;12231;42.782;23.388;2023-01-28T06:04:44;95197.09;;;0.77;100.00
19590;BME280;12231;42.782;23.388;2023-01-28T06:07:09;95209.25;;;0.95;100.00
19590;BME280;12231;42.782;23.388;2023-01-28T06:09:37;95214.19;;;0.99;100.00
19590;BME280;12231;42.782;23.388;2023-01-28T06:12:03;95206.75;;;0.93;100.00
19590;BME280;12231;42.782;23.388;2023-01-28T06:14:28;95209.63;;;0.83;100.00
19590;BME280;12231;42.782;23.388;2023-01-28T06:16:53;95217.00;;;0.90;100.00
19590;BME280;12231;42.782;23.388;2023-01-28T06:19:19;95216.47;;;1.08;100.00
19590;BME280;12231;42.782;23.388;2023-01-28T06:21:44;95219.84;;;1.07;100.00
19590;BME280;12231;42.782;23.388;2023-01-28T06:24:10;95227.56;;;1.04;100.00
19590;BME280;12231;42.782;23.388;2023-01-28T06:26:36;95227.22;;;1.16;100.00
19590;BME280;12231;42.782;23.388;2023-01-28T06:29:01;95229.41;;;0.99;100.00
19590;BME280;12231;42.782;23.388;2023-01-28T06:31:27;95235.53;;;0.92;100.00
19590;BME280;12231;42.782;23.388;2023-01-28T06:33:52;95237.38;;;1.16;100.00
19590;BME280;12231;42.782;23.388;2023-01-28T06:36:18;95234.78;;;1.18;100.00
19590;BME280;12231;42.782;23.388;2023-01-28T06:38:43;95243.00;;;1.26;100.00
19590;BME280;12231;42.782;23.388;2023-01-28T06:41:08;95249.91;;;1.21;100.00
19590;BME280;12231;42.782;23.388;2023-01-28T06:43:34;95250.69;;;1.23;100.00
19590;BME280;12231;42.782;23.388;2023-01-28T06:45:59;95243.53;;;1.08;100.00
19590;BME280;12231;42.782;23.388;2023-01-28T06:48:26;95248.41;;;1.14;100.00
19590;BME280;12231;42.782;23.388;2023-01-28T06:50:51;95255.06;;;1.18;100.00
19590;BME280;12231;42.782;23.388;2023-01-28T06:53:17;95258.03;;;1.32;100.00
19590;BME280;12231;42.782;23.388;2023-01-28T06:55:43;95260.66;;;1.29;100.00
19590;BME280;12231;42.782;23.388;2023-01-28T06:58:09;95264.00;;;1.31;100.00
19590;BME280;12231;42.782;23.388;2023-01-28T07:00:35;95263.28;;;1.26;100.00
19590;BME280;12231;42.782;23.388;2023-01-28T07:03:00;95270.63;;;1.35;100.00
19590;BME280;12231;42.782;23.388;2023-01-28T07:05:26;95271.19;;;1.17;100.00
19590;BME280;12231;42.782;23.388;2023-01-28T07:07:51;95267.84;;;1.15;100.00
19590;BME280;12231;42.782;23.388;2023-01-28T07:10:17;95273.59;;;1.21;100.00
19590;BME280;12231;42.782;23.388;2023-01-28T07:12:42;95278.59;;;1.52;100.00
19590;BME280;12231;42.782;23.388;2023-01-28T07:15:09;95279.72;;;1.42;100.00
19590;BME280;12231;42.782;23.388;2023-01-28T07:17:41;95280.44;;;1.47;100.00
19590;BME280;12231;42.782;23.388;2023-01-28T07:20:08;95286.16;;;1.54;100.00
19590;BME280;12231;42.782;23.388;2023-01-28T07:22:35;95289.44;;;1.57;100.00
19590;BME280;12231;42.782;23.388;2023-01-28T07:25:02;95291.63;;;1.40;100.00
19590;BME280;12231;42.782;23.388;2023-01-28T07:27:27;95293.44;;;2.18;100.00
19590;BME280;12231;42.782;23.388;2023-01-28T07:29:52;95301.50;;;2.04;100.00
19590;BME280;12231;42.782;23.388;2023-01-28T07:32:18;95306.84;;;1.97;100.00
19590;BME280;12231;42.782;23.388;2023-01-28T07:34:43;95310.03;;;2.02;100.00
19590;BME280;12231;42.782;23.388;2023-01-28T07:37:09;95317.50;;;1.80;100.00
19590;BME280;12231;42.782;23.388;2023-01-28T07:39:34;95317.13;;;1.92;100.00
19590;BME280;12231;42.782;23.388;2023-01-28T07:42:00;95322.16;;;1.66;100.00
19590;BME280;12231;42.782;23.388;2023-01-28T07:44:26;95324.66;;;1.68;100.00
19590;BME280;12231;42.782;23.388;2023-01-28T07:46:51;95322.03;;;1.71;100.00
19590;BME280;12231;42.782;23.388;2023-01-28T07:49:17;95322.84;;;2.25;100.00
19590;BME280;12231;42.782;23.388;2023-01-28T07:51:42;95329.72;;;1.97;100.00
19590;BME280;12231;42.782;23.388;2023-01-28T07:54:10;95325.59;;;1.93;100.00
19590;BME280;12231;42.782;23.388;2023-01-28T07:56:35;95330.31;;;1.77;100.00
19590;BME280;12231;42.782;23.388;2023-01-28T07:59:01;95329.88;;;1.63;100.00
19590;BME280;12231;42.782;23.388;2023-01-28T08:01:26;95339.56;;;1.78;100.00
19590;BME280;12231;42.782;23.388;2023-01-28T08:03:52;95337.53;;;1.89;100.00
19590;BME280;12231;42.782;23.388;2023-01-28T08:06:18;95340.97;;;1.88;100.00
19590;BME280;12231;42.782;23.388;2023-01-28T08:08:43;95341.88;;;1.86;100.00
19590;BME280;12231;42.782;23.388;2023-01-28T08:11:09;95338.13;;;1.97;100.00
19590;BME280;12231;42.782;23.388;2023-01-28T08:13:35;95335.59;;;1.97;100.00
19590;BME280;12231;42.782;23.388;2023-01-28T08:16:01;95343.22;;;1.97;100.00
19590;BME280;12231;42.782;23.388;2023-01-28T08:18:26;95343.25;;;1.96;100.00
19590;BME280;12231;42.782;23.388;2023-01-28T08:20:55;95343.09;;;2.28;100.00
19590;BME280;12231;42.782;23.388;2023-01-28T08:23:21;95344.75;;;2.29;100.00
19590;BME280;12231;42.782;23.388;2023-01-28T08:25:47;95348.47;;;2.45;100.00
19590;BME280;12231;42.782;23.388;2023-01-28T08:28:14;95360.00;;;2.55;100.00
19590;BME280;12231;42.782;23.388;2023-01-28T08:30:40;95359.16;;;2.80;100.00
19590;BME280;12231;42.782;23.388;2023-01-28T08:33:08;95348.22;;;3.02;100.00
19590;BME280;12231;42.782;23.388;2023-01-28T08:35:34;95351.19;;;3.14;100.00
19590;BME280;12231;42.782;23.388;2023-01-28T08:38:01;95346.22;;;3.34;100.00
19590;BME280;12231;42.782;23.388;2023-01-28T08:40:27;95357.13;;;3.38;100.00
19590;BME280;12231;42.782;23.388;2023-01-28T08:42:53;95354.91;;;3.52;100.00
19590;BME280;12231;42.782;23.388;2023-01-28T08:45:20;95362.28;;;3.36;100.00
19590;BME280;12231;42.782;23.388;2023-01-28T08:48:06;95364.41;;;3.01;100.00
19590;BME280;12231;42.782;23.388;2023-01-28T08:50:34;95364.00;;;2.87;100.00
19590;BME280;12231;42.782;23.388;2023-01-28T08:53:03;95366.44;;;2.91;100.00
19590;BME280;12231;42.782;23.388;2023-01-28T08:55:29;95367.28;;;2.39;100.00
19590;BME280;12231;42.782;23.388;2023-01-28T08:57:55;95369.44;;;2.51;100.00
19590;BME280;12231;42.782;23.388;2023-01-28T09:00:21;95374.03;;;2.66;100.00
19590;BME280;12231;42.782;23.388;2023-01-28T09:02:50;95376.16;;;2.78;100.00
19590;BME280;12231;42.782;23.388;2023-01-28T09:05:16;95378.13;;;2.70;100.00
19590;BME280;12231;42.782;23.388;2023-01-28T09:07:41;95372.75;;;2.79;100.00
19590;BME280;12231;42.782;23.388;2023-01-28T09:10:07;95376.16;;;2.78;100.00
19590;BME280;12231;42.782;23.388;2023-01-28T09:12:34;95372.47;;;2.62;100.00
19590;BME280;12231;42.782;23.388;2023-01-28T09:15:00;95377.28;;;2.45;100.00
19590;BME280;12231;42.782;23.388;2023-01-28T09:17:25;95370.97;;;2.57;100.00
19590;BME280;12231;42.782;23.388;2023-01-28T09:19:50;95376.56;;;2.93;100.00
19590;BME280;12231;42.782;23.388;2023-01-28T09:22:16;95361.00;;;3.25;100.00
19590;BME280;12231;42.782;23.388;2023-01-28T09:24:42;95364.16;;;3.31;100.00
19590;BME280;12231;42.782;23.388;2023-01-28T09:27:07;95362.66;;;3.49;100.00
19590;BME280;12231;42.782;23.388;2023-01-28T09:29:33;95360.91;;;3.51;100.00
19590;BME280;12231;42.782;23.388;2023-01-28T09:31:59;95362.47;;;3.30;100.00
19590;BME280;12231;42.782;23.388;2023-01-28T09:34:24;95365.06;;;3.29;100.00
19590;BME280;12231;42.782;23.388;2023-01-28T09:36:50;95367.06;;;2.98;100.00
19590;BME280;12231;42.782;23.388;2023-01-28T09:39:16;95373.84;;;3.22;100.00
19590;BME280;12231;42.782;23.388;2023-01-28T09:44:37;95361.97;;;2.73;100.00
19590;BME280;12231;42.782;23.388;2023-01-28T09:49:52;95363.50;;;3.02;100.00
19590;BME280;12231;42.782;23.388;2023-01-28T09:52:22;95368.38;;;2.58;100.00
19590;BME280;12231;42.782;23.388;2023-01-28T09:55:22;95365.94;;;2.80;100.00
19590;BME280;12231;42.782;23.388;2023-01-28T09:57:51;95370.22;;;2.79;100.00
19590;BME280;12231;42.782;23.388;2023-01-28T10:00:21;95356.88;;;2.98;100.00
19590;BME280;12231;42.782;23.388;2023-01-28T10:03:01;95369.47;;;2.76;100.00
19590;BME280;12231;42.782;23.388;2023-01-28T10:13:56;95358.84;;;3.37;100.00
19590;BME280;12231;42.782;23.388;2023-01-28T10:16:33;95361.31;;;3.16;100.00
19590;BME280;12231;42.782;23.388;2023-01-28T10:19:09;95353.72;;;3.14;100.00
19590;BME280;12231;42.782;23.388;2023-01-28T10:21:47;95359.00;;;3.33;100.00
19590;BME280;12231;42.782;23.388;2023-01-28T10:26:52;95359.28;;;3.25;100.00
19590;BME280;12231;42.782;23.388;2023-01-28T10:29:20;95354.22;;;3.01;100.00
19590;BME280;12231;42.782;23.388;2023-01-28T10:32:28;95357.69;;;3.46;100.00
19590;BME280;12231;42.782;23.388;2023-01-28T10:34:54;95357.34;;;3.32;100.00
19590;BME280;12231;42.782;23.388;2023-01-28T10:37:20;95367.69;;;3.27;100.00
19590;BME280;12231;42.782;23.388;2023-01-28T10:39:46;95355.66;;;3.08;100.00
19590;BME280;12231;42.782;23.388;2023-01-28T10:42:35;95359.63;;;3.39;100.00
19590;BME280;12231;42.782;23.388;2023-01-28T10:47:37;95355.72;;;2.81;100.00
19590;BME280;12231;42.782;23.388;2023-01-28T10:50:04;95350.25;;;2.92;100.00
19590;BME280;12231;42.782;23.388;2023-01-28T10:52:30;95346.69;;;3.21;100.00
19590;BME280;12231;42.782;23.388;2023-01-28T10:55:03;95355.72;;;3.29;100.00
19590;BME280;12231;42.782;23.388;2023-01-28T10:57:32;95347.66;;;3.41;100.00
19590;BME280;12231;42.782;23.388;2023-01-28T11:00:09;95348.28;;;3.48;100.00
19590;BME280;12231;42.782;23.388;2023-01-28T11:02:35;95351.19;;;3.83;100.00
19590;BME280;12231;42.782;23.388;2023-01-28T11:05:05;95346.38;;;3.97;100.00
19590;BME280;12231;42.782;23.388;2023-01-28T11:07:31;95348.97;;;4.39;100.00
19590;BME280;12231;42.782;23.388;2023-01-28T11:09:57;95353.97;;;4.20;100.00
19590;BME280;12231;42.782;23.388;2023-01-28T11:12:30;95356.53;;;4.42;100.00
19590;BME280;12231;42.782;23.388;2023-01-28T11:15:00;95354.19;;;4.58;100.00
19590;BME280;12231;42.782;23.388;2023-01-28T11:17:31;95353.66;;;4.28;100.00
19590;BME280;12231;42.782;23.388;2023-01-28T11:20:08;95357.22;;;3.81;100.00
19590;BME280;12231;42.782;23.388;2023-01-28T11:22:41;95349.81;;;3.96;100.00
19590;BME280;12231;42.782;23.388;2023-01-28T11:25:29;95345.84;;;4.11;100.00
19590;BME280;12231;42.782;23.388;2023-01-28T11:27:57;95310.38;;;8.62;100.00
19590;BME280;12231;42.782;23.388;2023-01-28T11:30:27;95310.63;;;9.31;100.00
19590;BME280;12231;42.782;23.388;2023-01-28T11:33:16;95323.31;;;12.46;93.22
19590;BME280;12231;42.782;23.388;2023-01-28T11:35:52;95306.03;;;11.49;76.93
19590;BME280;12231;42.782;23.388;2023-01-28T11:38:22;95308.84;;;9.17;80.44
19590;BME280;12231;42.782;23.388;2023-01-28T11:40:55;95321.94;;;7.93;84.23
19590;BME280;12231;42.782;23.388;2023-01-28T11:43:25;95324.91;;;7.54;87.19
19590;BME280;12231;42.782;23.388;2023-01-28T11:54:22;95328.94;;;5.30;95.53
19590;BME280;12231;42.782;23.388;2023-01-28T11:57:20;95319.59;;;4.71;98.14
19590;BME280;12231;42.782;23.388;2023-01-28T11:59:53;95329.72;;;4.10;100.00
19590;BME280;12231;42.782;23.388;2023-01-28T12:10:40;95330.69;;;4.50;100.00
19590;BME280;12231;42.782;23.388;2023-01-28T12:24:40;95319.50;;;5.12;98.11
19590;BME280;12231;42.782;23.388;2023-01-28T12:30:24;95321.50;;;4.46;99.17
19590;BME280;12231;42.782;23.388;2023-01-28T12:36:01;95326.22;;;4.55;100.00
19590;BME280;12231;42.782;23.388;2023-01-28T12:38:47;95333.69;;;4.59;99.00
19590;BME280;12231;42.782;23.388;2023-01-28T12:41:28;95329.19;;;4.24;100.00
19590;BME280;12231;42.782;23.388;2023-01-28T12:44:02;95335.03;;;4.48;100.00
19590;BME280;12231;42.782;23.388;2023-01-28T12:46:44;95338.53;;;4.02;100.00
19590;BME280;12231;42.782;23.388;2023-01-28T12:56:46;95343.31;;;4.11;100.00
19590;BME280;12231;42.782;23.388;2023-01-28T12:59:37;95341.56;;;4.11;100.00
19590;BME280;12231;42.782;23.388;2023-01-28T13:04:45;95350.94;;;3.89;100.00
19590;BME280;12231;42.782;23.388;2023-01-28T13:07:20;95357.94;;;3.84;100.00
19590;BME280;12231;42.782;23.388;2023-01-28T13:09:53;95360.88;;;3.74;100.00
19590;BME280;12231;42.782;23.388;2023-01-28T13:12:23;95356.47;;;3.56;100.00
19590;BME280;12231;42.782;23.388;2023-01-28T13:14:48;95356.59;;;3.74;100.00
19590;BME280;12231;42.782;23.388;2023-01-28T13:17:29;95357.34;;;3.55;100.00
19590;BME280;12231;42.782;23.388;2023-01-28T13:19:56;95372.13;;;3.68;100.00
19590;BME280;12231;42.782;23.388;2023-01-28T13:22:33;95367.34;;;3.82;100.00
19590;BME280;12231;42.782;23.388;2023-01-28T13:25:19;95368.75;;;3.68;100.00
19590;BME280;12231;42.782;23.388;2023-01-28T13:27:57;95370.47;;;3.67;100.00
19590;BME280;12231;42.782;23.388;2023-01-28T13:30:26;95371.09;;;3.74;100.00
19590;BME280;12231;42.782;23.388;2023-01-28T13:33:01;95370.78;;;3.81;100.00
19590;BME280;12231;42.782;23.388;2023-01-28T13:35:35;95373.09;;;3.87;100.00
19590;BME280;12231;42.782;23.388;2023-01-28T13:38:07;95376.78;;;4.02;100.00
19590;BME280;12231;42.782;23.388;2023-01-28T13:40:33;95379.69;;;3.93;100.00
19590;BME280;12231;42.782;23.388;2023-01-28T13:43:05;95385.66;;;3.70;100.00
19590;BME280;12231;42.782;23.388;2023-01-28T13:46:00;95389.34;;;3.85;100.00
19590;BME280;12231;42.782;23.388;2023-01-28T13:48:31;95389.56;;;3.33;100.00
19590;BME280;12231;42.782;23.388;2023-01-28T13:50:58;95394.03;;;3.26;100.00
19590;BME280;12231;42.782;23.388;2023-01-28T13:53:36;95388.84;;;3.29;100.00
19590;BME280;12231;42.782;23.388;2023-01-28T13:56:08;95387.28;;;3.48;100.00
19590;BME280;12231;42.782;23.388;2023-01-28T14:01:43;95394.56;;;3.11;100.00
19590;BME280;12231;42.782;23.388;2023-01-28T14:17:59;95417.34;;;2.90;100.00
19590;BME280;12231;42.782;23.388;2023-01-28T14:20:31;95422.00;;;2.77;100.00
19590;BME280;12231;42.782;23.388;2023-01-28T14:23:03;95427.59;;;2.62;100.00
19590;BME280;12231;42.782;23.388;2023-01-28T14:29:03;95433.25;;;2.70;100.00
19590;BME280;12231;42.782;23.388;2023-01-28T14:31:35;95443.44;;;2.44;100.00
19590;BME280;12231;42.782;23.388;2023-01-28T14:36:44;95445.00;;;2.48;100.00
19590;BME280;12231;42.782;23.388;2023-01-28T14:39:19;95441.03;;;2.39;100.00
19590;BME280;12231;42.782;23.388;2023-01-28T14:41:48;95450.22;;;2.43;100.00
19590;BME280;12231;42.782;23.388;2023-01-28T14:44:47;95455.50;;;2.37;100.00
19590;BME280;12231;42.782;23.388;2023-01-28T14:59:01;95465.22;;;1.96;100.00
19590;BME280;12231;42.782;23.388;2023-01-28T15:01:30;95466.16;;;1.93;100.00